Time;durP1;ratioP1;P1;durP2;ratioP2;P2;SDS_P1;SDS_P2;PMS_P1;PMS_P2;Temp;Humidity;BMP_temperature;BMP_pressure;BME280_temperature;BME280_humidity;BME280_pressure;Samples;Min_cycle;Max_cycle;Signal;HPM_P1;HPM_P2
2021/04/05 00:00:30;;;;;;;4.57;3.47;;;;;;;;;;5054862;28;20374;-77
2021/04/05 00:02:56;;;;;;;5.60;3.58;;;;;;;;;;5053214;28;20033;-77
2021/04/05 00:05:30;;;;;;;5.18;3.55;;;;;;;;;;5053485;28;20419;-77
2021/04/05 00:07:55;;;;;;;4.43;3.42;;;;;;;;;;5036975;28;20040;-78
2021/04/05 00:10:30;;;;;;;6.57;3.65;;;;;;;;;;5054370;28;20435;-77
2021/04/05 00:12:56;;;;;;;8.43;3.80;;;;;;;;;;5038027;28;20036;-77
2021/04/05 00:15:21;;;;;;;5.93;3.70;;;;;;;;;;5053103;28;20481;-77
2021/04/05 00:17:47;;;;;;;4.70;3.55;;;;;;;;;;5054458;28;20481;-77
2021/04/05 00:20:15;;;;;;;6.13;3.50;;;;;;;;;;5036588;28;20110;-77
2021/04/05 00:22:44;;;;;;;7.55;3.63;;;;;;;;;;5053453;28;20074;-77
2021/04/05 00:25:10;;;;;;;4.65;3.67;;;;;;;;;;5052999;28;20034;-76
2021/04/05 00:27:36;;;;;;;6.93;3.38;;;;;;;;;;5053217;28;20033;-77
2021/04/05 00:30:16;;;;;;;6.18;3.67;;;;;;;;;;5036239;28;20031;-77
2021/04/05 00:32:44;;;;;;;6.85;3.90;;;;;;;;;;5053269;28;20056;-77
2021/04/05 00:35:10;;;;;;;5.45;4.05;;;;;;;;;;5053019;28;20106;-77
2021/04/05 00:37:35;;;;;;;5.53;3.92;;;;;;;;;;5054133;28;20025;-77
2021/04/05 00:40:01;;;;;;;5.13;3.60;;;;;;;;;;5054063;28;20032;-77
2021/04/05 00:42:27;;;;;;;5.78;3.83;;;;;;;;;;5052453;28;20109;-77
2021/04/05 00:44:52;;;;;;;5.38;3.47;;;;;;;;;;5052544;28;20496;-77
2021/04/05 00:47:18;;;;;;;6.00;3.63;;;;;;;;;;5036069;28;20476;-77
2021/04/05 00:49:43;;;;;;;4.97;3.72;;;;;;;;;;5053997;28;20473;-76
2021/04/05 00:52:09;;;;;;;6.45;4.00;;;;;;;;;;5053897;28;20396;-77
2021/04/05 00:54:34;;;;;;;4.78;3.65;;;;;;;;;;5052691;28;20021;-76
2021/04/05 00:56:59;;;;;;;6.70;3.75;;;;;;;;;;5052806;28;20029;-76
2021/04/05 00:59:25;;;;;;;6.72;3.75;;;;;;;;;;5035683;28;20021;-77
2021/04/05 01:01:50;;;;;;;6.25;3.95;;;;;;;;;;5052500;28;20461;-77
2021/04/05 01:04:16;;;;;;;6.32;3.83;;;;;;;;;;5035619;28;20033;-77
2021/04/05 01:06:41;;;;;;;5.47;3.95;;;;;;;;;;5053765;28;20050;-77
2021/04/05 01:09:07;;;;;;;7.45;3.88;;;;;;;;;;5053566;28;20035;-78
2021/04/05 01:11:33;;;;;;;6.22;4.03;;;;;;;;;;5053530;28;20121;-78
2021/04/05 01:13:58;;;;;;;5.97;3.88;;;;;;;;;;5052013;28;20025;-77
2021/04/05 01:16:27;;;;;;;4.55;3.53;;;;;;;;;;5053321;28;20024;-77
2021/04/05 01:18:53;;;;;;;6.03;4.13;;;;;;;;;;5035066;28;20029;-77
2021/04/05 01:21:19;;;;;;;6.40;4.05;;;;;;;;;;5051770;28;20107;-77
2021/04/05 01:23:44;;;;;;;5.95;4.10;;;;;;;;;;5052166;28;20485;-77
2021/04/05 01:26:10;;;;;;;5.72;4.20;;;;;;;;;;5052993;28;20051;-77
2021/04/05 01:28:35;;;;;;;6.40;4.60;;;;;;;;;;5051668;28;20031;-76
2021/04/05 01:31:01;;;;;;;6.35;4.18;;;;;;;;;;5052136;28;20066;-76
2021/04/05 01:33:26;;;;;;;6.90;4.45;;;;;;;;;;5035074;28;20108;-76
2021/04/05 01:35:57;;;;;;;6.15;4.28;;;;;;;;;;5053154;28;20029;-76
2021/04/05 01:38:34;;;;;;;6.30;4.17;;;;;;;;;;5035334;28;20028;-76
2021/04/05 01:41:03;;;;;;;7.28;4.13;;;;;;;;;;5051923;28;20276;-77
2021/04/05 01:43:29;;;;;;;7.05;4.80;;;;;;;;;;5050837;28;20053;-77
2021/04/05 01:45:55;;;;;;;5.97;4.07;;;;;;;;;;5051787;28;20036;-76
2021/04/05 01:48:22;;;;;;;5.93;4.22;;;;;;;;;;5051692;28;20468;-76
2021/04/05 01:50:47;;;;;;;9.15;4.78;;;;;;;;;;5035023;28;20033;-76
2021/04/05 01:53:19;;;;;;;7.32;4.80;;;;;;;;;;5051472;28;20024;-78
2021/04/05 01:55:45;;;;;;;6.13;4.40;;;;;;;;;;5051640;28;20044;-77
2021/04/05 01:58:10;;;;;;;5.32;4.35;;;;;;;;;;5034669;28;20476;-77
2021/04/05 02:00:37;;;;;;;8.27;4.43;;;;;;;;;;5051310;28;20036;-77
2021/04/05 02:03:09;;;;;;;7.50;4.80;;;;;;;;;;5051260;28;20036;-77
2021/04/05 02:05:43;;;;;;;5.80;4.32;;;;;;;;;;5034763;28;20396;-77
2021/04/05 02:08:09;;;;;;;7.65;4.78;;;;;;;;;;5051323;28;20039;-77
2021/04/05 02:10:34;;;;;;;6.88;4.38;;;;;;;;;;5051288;28;20033;-77
2021/04/05 02:13:00;;;;;;;8.05;3.97;;;;;;;;;;5051231;28;20025;-77
2021/04/05 02:15:26;;;;;;;5.78;4.22;;;;;;;;;;5052261;28;20075;-77
2021/04/05 02:17:52;;;;;;;6.55;4.13;;;;;;;;;;5034770;28;20479;-77
2021/04/05 02:20:18;;;;;;;6.25;4.53;;;;;;;;;;5052518;28;20059;-77
2021/04/05 02:22:48;;;;;;;9.30;4.53;;;;;;;;;;5051118;28;20021;-77
2021/04/05 02:25:14;;;;;;;6.00;4.70;;;;;;;;;;5034764;28;20033;-77
2021/04/05 02:27:41;;;;;;;7.22;4.68;;;;;;;;;;5051944;28;20515;-77
2021/04/05 02:30:07;;;;;;;7.60;4.75;;;;;;;;;;5051034;28;20381;-77
2021/04/05 02:32:32;;;;;;;6.00;4.63;;;;;;;;;;5051932;28;20078;-77
2021/04/05 02:34:58;;;;;;;6.65;4.88;;;;;;;;;;5034441;28;20025;-77
2021/04/05 02:37:23;;;;;;;7.60;4.63;;;;;;;;;;5034397;28;20024;-77
2021/04/05 02:39:49;;;;;;;6.57;4.63;;;;;;;;;;5050992;28;20078;-77
2021/04/05 02:42:16;;;;;;;7.30;4.38;;;;;;;;;;5033455;28;20041;-77
2021/04/05 02:44:43;;;;;;;8.40;5.40;;;;;;;;;;5034074;28;20028;-77
2021/04/05 02:47:09;;;;;;;6.47;4.32;;;;;;;;;;5051088;28;20393;-77
2021/04/05 02:49:34;;;;;;;6.43;4.75;;;;;;;;;;5050784;28;20028;-77
2021/04/05 02:52:00;;;;;;;5.60;4.32;;;;;;;;;;5034328;28;20032;-77
2021/04/05 02:54:25;;;;;;;8.68;4.65;;;;;;;;;;5034162;28;20032;-77
2021/04/05 02:56:51;;;;;;;7.20;4.70;;;;;;;;;;5033929;28;20036;-77
2021/04/05 02:59:17;;;;;;;6.75;4.55;;;;;;;;;;5050748;28;20029;-77
2021/04/05 03:01:42;;;;;;;6.82;4.80;;;;;;;;;;5050821;28;20033;-77
2021/04/05 03:04:08;;;;;;;6.93;4.75;;;;;;;;;;5050600;28;20025;-76
2021/04/05 03:06:33;;;;;;;6.20;4.38;;;;;;;;;;5050606;28;20028;-77
2021/04/05 03:09:00;;;;;;;8.52;4.55;;;;;;;;;;5034309;28;20025;-77
2021/04/05 03:11:26;;;;;;;7.10;5.15;;;;;;;;;;5050158;28;20032;-76
2021/04/05 03:13:52;;;;;;;7.75;4.90;;;;;;;;;;5050678;28;20396;-77
2021/04/05 03:16:22;;;;;;;8.27;5.10;;;;;;;;;;5034122;28;20033;-77
2021/04/05 03:18:48;;;;;;;7.18;4.40;;;;;;;;;;5050526;28;20033;-76
2021/04/05 03:21:13;;;;;;;7.53;4.63;;;;;;;;;;5050630;28;20382;-77
2021/04/05 03:23:39;;;;;;;7.72;5.10;;;;;;;;;;5033870;28;20032;-77
2021/04/05 03:26:05;;;;;;;7.18;4.57;;;;;;;;;;5050259;28;20508;-77
2021/04/05 03:28:30;;;;;;;6.45;4.80;;;;;;;;;;5051554;28;20059;-77
2021/04/05 03:31:18;;;;;;;7.47;5.07;;;;;;;;;;5050627;28;20058;-76
2021/04/05 03:33:48;;;;;;;7.10;4.78;;;;;;;;;;5036644;28;20465;-76
2021/04/05 03:36:34;;;;;;;6.55;4.60;;;;;;;;;;5050668;28;20020;-77
2021/04/05 03:38:59;;;;;;;6.20;4.57;;;;;;;;;;5033810;28;20067;-77
2021/04/05 03:41:40;;;;;;;6.13;4.70;;;;;;;;;;5050543;28;20056;-77
2021/04/05 03:44:34;;;;;;;6.25;4.82;;;;;;;;;;5038172;28;20048;-77
2021/04/05 03:47:05;;;;;;;5.85;4.43;;;;;;;;;;5054219;28;20033;-77
2021/04/05 03:49:37;;;;;;;8.48;4.70;;;;;;;;;;5037750;28;20021;-77
2021/04/05 03:52:03;;;;;;;6.40;4.60;;;;;;;;;;5055205;28;20523;-77
2021/04/05 03:54:34;;;;;;;7.07;4.60;;;;;;;;;;5053543;28;20013;-76
2021/04/05 03:56:59;;;;;;;8.13;4.67;;;;;;;;;;5054092;28;20024;-76
2021/04/05 03:59:28;;;;;;;6.53;4.88;;;;;;;;;;5054878;28;20552;-76
2021/04/05 04:01:59;;;;;;;9.85;5.00;;;;;;;;;;5037457;28;20021;-76
2021/04/05 04:04:26;;;;;;;7.40;4.88;;;;;;;;;;5037278;28;20021;-77
2021/04/05 04:09:38;;;;;;;8.43;5.10;;;;;;;;;;5053168;28;20108;-77
2021/04/05 04:12:10;;;;;;;8.25;4.90;;;;;;;;;;5037164;28;20029;-77
2021/04/05 04:14:35;;;;;;;6.80;4.47;;;;;;;;;;5053256;28;20032;-76
2021/04/05 04:17:01;;;;;;;6.78;5.10;;;;;;;;;;5020305;28;20025;-77
2021/04/05 04:19:26;;;;;;;7.40;5.00;;;;;;;;;;5036727;28;20016;-76
2021/04/05 04:21:52;;;;;;;6.57;4.93;;;;;;;;;;5036258;28;20110;-76
2021/04/05 04:24:17;;;;;;;9.90;5.50;;;;;;;;;;5053325;28;20025;-76
2021/04/05 04:26:43;;;;;;;8.93;5.18;;;;;;;;;;5036384;28;20041;-77
2021/04/05 04:29:22;;;;;;;8.40;5.20;;;;;;;;;;5053286;28;20055;-76
2021/04/05 04:31:47;;;;;;;11.80;5.43;;;;;;;;;;5053094;28;20021;-76
2021/04/05 04:34:16;;;;;;;7.50;4.82;;;;;;;;;;5036764;28;20024;-76
2021/04/05 04:36:42;;;;;;;7.22;4.93;;;;;;;;;;5053739;28;20078;-76
2021/04/05 04:39:07;;;;;;;9.65;5.15;;;;;;;;;;5036486;28;20028;-76
2021/04/05 04:41:33;;;;;;;8.63;4.63;;;;;;;;;;5052199;28;20473;-76
2021/04/05 04:44:02;;;;;;;8.10;4.57;;;;;;;;;;5033893;28;20033;-76
2021/04/05 04:46:28;;;;;;;6.00;4.65;;;;;;;;;;5000025;28;20036;-76
2021/04/05 04:48:58;;;;;;;5.97;4.80;;;;;;;;;;5016521;28;20447;-76
2021/04/05 04:51:23;;;;;;;6.90;4.75;;;;;;;;;;5033620;28;20172;-76
2021/04/05 04:53:49;;;;;;;7.70;4.95;;;;;;;;;;5015288;28;20108;-76
2021/04/05 04:56:15;;;;;;;7.65;5.25;;;;;;;;;;5000065;28;20524;-76
2021/04/05 04:58:42;;;;;;;8.25;5.10;;;;;;;;;;4999969;28;20033;-76
2021/04/05 05:01:08;;;;;;;10.13;5.60;;;;;;;;;;5000025;28;20025;-76
2021/04/05 05:03:33;;;;;;;9.50;5.40;;;;;;;;;;5016174;28;20026;-77
2021/04/05 05:05:59;;;;;;;7.60;5.47;;;;;;;;;;5015787;28;20036;-76
2021/04/05 05:08:27;;;;;;;6.78;5.10;;;;;;;;;;5016351;28;20029;-76
2021/04/05 05:10:52;;;;;;;11.23;6.38;;;;;;;;;;5016105;28;20026;-76
2021/04/05 05:13:18;;;;;;;10.82;6.00;;;;;;;;;;4999638;28;20080;-76
2021/04/05 05:15:44;;;;;;;9.85;6.55;;;;;;;;;;4999457;28;20026;-76
2021/04/05 05:18:09;;;;;;;10.90;6.60;;;;;;;;;;5033674;28;20080;-76
2021/04/05 05:20:34;;;;;;;10.38;6.30;;;;;;;;;;5015507;28;20025;-76
2021/04/05 05:23:01;;;;;;;11.23;6.65;;;;;;;;;;4999358;28;20099;-76
2021/04/05 05:25:26;;;;;;;9.38;6.47;;;;;;;;;;5015870;28;20034;-76
2021/04/05 05:27:57;;;;;;;8.75;5.88;;;;;;;;;;4999139;28;20029;-76
2021/04/05 05:30:23;;;;;;;7.93;5.65;;;;;;;;;;4999785;28;20021;-76
2021/04/05 05:32:49;;;;;;;8.57;5.60;;;;;;;;;;4999241;28;20026;-76
2021/04/05 05:35:15;;;;;;;11.88;5.78;;;;;;;;;;4999114;28;20064;-76
2021/04/05 05:37:41;;;;;;;10.23;6.18;;;;;;;;;;5015617;28;20168;-77
2021/04/05 05:40:07;;;;;;;8.88;6.82;;;;;;;;;;4999102;28;20025;-76
2021/04/05 05:42:40;;;;;;;9.88;5.97;;;;;;;;;;5029370;28;20483;-76
2021/04/05 05:45:07;;;;;;;9.63;5.60;;;;;;;;;;5053046;28;20071;-76
2021/04/05 05:48:06;;;;;;;7.15;5.18;;;;;;;;;;5018615;28;20115;-77
2021/04/05 05:50:47;;;;;;;7.70;5.93;;;;;;;;;;5052468;28;20075;-76
2021/04/05 05:53:13;;;;;;;10.13;6.00;;;;;;;;;;5048401;28;20439;-76
2021/04/05 05:55:46;;;;;;;8.75;5.68;;;;;;;;;;5032492;28;20269;-76
2021/04/05 05:58:17;;;;;;;9.82;5.25;;;;;;;;;;5031286;28;20056;-76
2021/04/05 06:00:59;;;;;;;8.48;5.03;;;;;;;;;;5031622;28;20465;-76
2021/04/05 06:03:56;;;;;;;9.32;5.50;;;;;;;;;;5018112;28;20155;-76
2021/04/05 06:06:41;;;;;;;8.75;5.80;;;;;;;;;;5052506;28;20033;-76
2021/04/05 06:09:19;;;;;;;9.00;5.85;;;;;;;;;;5050667;28;20163;-76
2021/04/05 06:12:06;;;;;;;8.75;5.55;;;;;;;;;;5052077;28;20029;-77
2021/04/05 06:14:40;;;;;;;8.27;5.82;;;;;;;;;;5051985;28;20035;-79
2021/04/05 06:17:24;;;;;;;7.97;5.80;;;;;;;;;;5059716;28;20024;-78
2021/04/05 06:19:51;;;;;;;12.10;6.20;;;;;;;;;;5039991;28;20437;-78
2021/04/05 06:22:26;;;;;;;11.27;6.47;;;;;;;;;;5032001;28;20057;-77
2021/04/05 06:25:21;;;;;;;8.48;5.80;;;;;;;;;;5030431;28;20480;-77
2021/04/05 06:28:05;;;;;;;8.45;5.85;;;;;;;;;;5031319;28;20037;-77
2021/04/05 06:30:52;;;;;;;8.23;6.10;;;;;;;;;;5032395;28;20068;-77
2021/04/05 06:33:20;;;;;;;9.98;6.32;;;;;;;;;;5039823;28;20033;-77
2021/04/05 06:36:09;;;;;;;8.77;5.88;;;;;;;;;;5043027;28;20036;-77
2021/04/05 06:38:38;;;;;;;10.18;5.80;;;;;;;;;;4952897;28;20047;-77
2021/04/05 06:41:33;;;;;;;10.52;7.10;;;;;;;;;;4949463;29;20097;-77
2021/04/05 06:44:23;;;;;;;9.25;6.38;;;;;;;;;;4957450;28;20069;-76
2021/04/05 06:47:13;;;;;;;9.88;5.88;;;;;;;;;;4952600;28;20089;-77
2021/04/05 06:50:03;;;;;;;8.23;6.22;;;;;;;;;;4970753;28;20039;-77
2021/04/05 06:52:29;;;;;;;10.80;6.53;;;;;;;;;;4971003;28;20447;-77
2021/04/05 06:55:27;;;;;;;9.00;6.60;;;;;;;;;;4953739;28;20062;-77
2021/04/05 06:58:14;;;;;;;10.75;6.55;;;;;;;;;;4969241;28;20058;-77
2021/04/05 07:01:16;;;;;;;8.45;6.43;;;;;;;;;;4969675;28;20037;-77
2021/04/05 07:03:59;;;;;;;10.55;6.50;;;;;;;;;;4970985;28;20114;-77
2021/04/05 07:06:55;;;;;;;9.93;6.57;;;;;;;;;;4954720;28;20035;-77
2021/04/05 07:09:57;;;;;;;9.30;5.80;;;;;;;;;;4950924;28;20487;-76
2021/04/05 07:12:40;;;;;;;;;;;;;;;;;;4969507;28;20545;-76
2021/04/05 07:15:13;;;;;;;9.02;6.68;;;;;;;;;;4976205;28;19916;-77
2021/04/05 07:17:56;;;;;;;10.63;6.55;;;;;;;;;;5032346;28;20404;-76
2021/04/05 07:20:48;;;;;;;11.25;6.35;;;;;;;;;;5002032;28;20116;-77
2021/04/05 07:23:35;;;;;;;9.20;6.10;;;;;;;;;;5035079;28;20025;-77
2021/04/05 07:26:35;;;;;;;11.18;7.22;;;;;;;;;;5054219;28;20033;-77
2021/04/05 07:29:09;;;;;;;8.98;6.05;;;;;;;;;;5054469;28;20032;-77
2021/04/05 07:31:39;;;;;;;9.45;6.32;;;;;;;;;;5038216;28;20051;-79
2021/04/05 07:34:22;;;;;;;15.05;6.10;;;;;;;;;;5051544;28;20525;-79
2021/04/05 07:36:50;;;;;;;12.25;6.78;;;;;;;;;;5049429;28;20087;-80
2021/04/05 07:39:42;;;;;;;8.75;5.70;;;;;;;;;;5030155;28;20473;-76
2021/04/05 07:42:14;;;;;;;11.52;6.28;;;;;;;;;;5035507;28;20053;-75
2021/04/05 07:45:28;;;;;;;15.70;6.28;;;;;;;;;;5037164;28;20147;-75
2021/04/05 07:47:58;;;;;;;8.55;5.70;;;;;;;;;;5048195;28;20091;-75
2021/04/05 07:50:46;;;;;;;9.65;6.32;;;;;;;;;;5053579;28;20025;-75
2021/04/05 07:53:22;;;;;;;8.90;5.70;;;;;;;;;;5041726;28;20401;-76
2021/04/05 07:55:47;;;;;;;11.68;5.68;;;;;;;;;;5037006;28;20099;-76
2021/04/05 07:58:22;;;;;;;9.15;5.72;;;;;;;;;;5032767;28;20048;-76
2021/04/05 08:00:53;;;;;;;10.45;6.22;;;;;;;;;;5013812;28;20405;-76
2021/04/05 08:03:30;;;;;;;8.60;5.60;;;;;;;;;;5035241;28;20106;-76
2021/04/05 08:06:00;;;;;;;11.10;6.47;;;;;;;;;;5037935;28;20033;-75
2021/04/05 08:08:28;;;;;;;10.98;5.65;;;;;;;;;;5033895;28;20094;-76
2021/04/05 08:11:18;;;;;;;11.93;6.00;;;;;;;;;;5046890;28;20078;-75
2021/04/05 08:14:38;;;;;;;12.85;5.97;;;;;;;;;;5036385;28;20029;-76
2021/04/05 08:17:09;;;;;;;10.35;6.30;;;;;;;;;;5010766;28;20093;-77
2021/04/05 08:19:44;;;;;;;11.80;6.45;;;;;;;;;;5037393;28;20412;-77
2021/04/05 08:22:22;;;;;;;10.02;6.25;;;;;;;;;;5023237;28;20026;-77
2021/04/05 08:24:47;;;;;;;13.52;7.15;;;;;;;;;;5044906;28;20033;-77
2021/04/05 08:27:26;;;;;;;14.10;6.93;;;;;;;;;;5036382;28;20055;-76
2021/04/05 08:30:00;;;;;;;13.27;6.82;;;;;;;;;;5023958;28;20052;-77
2021/04/05 08:32:41;;;;;;;11.43;7.10;;;;;;;;;;5048060;28;20397;-77
2021/04/05 08:35:21;;;;;;;14.43;6.65;;;;;;;;;;5051895;28;20060;-77
2021/04/05 08:38:09;;;;;;;12.23;6.65;;;;;;;;;;5037121;28;20535;-77
2021/04/05 08:40:44;;;;;;;10.43;6.20;;;;;;;;;;5041350;28;20032;-77
2021/04/05 08:43:30;;;;;;;11.05;6.53;;;;;;;;;;5048716;28;20505;-76
2021/04/05 08:46:01;;;;;;;13.57;6.07;;;;;;;;;;5038218;28;20037;-78
2021/04/05 08:48:27;;;;;;;12.27;6.22;;;;;;;;;;5049583;28;20091;-77
2021/04/05 08:50:58;;;;;;;12.88;6.45;;;;;;;;;;5038739;28;20366;-76
2021/04/05 08:53:23;;;;;;;12.30;6.22;;;;;;;;;;5000693;28;20512;-77
2021/04/05 08:55:49;;;;;;;14.10;6.75;;;;;;;;;;5033123;28;20037;-78
2021/04/05 08:58:28;;;;;;;10.52;6.05;;;;;;;;;;5028526;28;20489;-77
2021/04/05 09:00:55;;;;;;;9.13;5.43;;;;;;;;;;5038494;28;20032;-79
2021/04/05 09:03:22;;;;;;;12.23;5.80;;;;;;;;;;5043284;28;20112;-79
2021/04/05 09:05:48;;;;;;;27.77;6.72;;;;;;;;;;5039360;28;20036;-79
2021/04/05 09:08:14;;;;;;;10.95;6.63;;;;;;;;;;5032897;28;20037;-80
2021/04/05 09:11:02;;;;;;;11.82;6.05;;;;;;;;;;5044493;28;20028;-79
2021/04/05 09:13:45;;;;;;;19.38;7.15;;;;;;;;;;5044652;28;20489;-80
2021/04/05 09:16:22;;;;;;;17.13;6.20;;;;;;;;;;5047873;28;20022;-80
2021/04/05 09:18:50;;;;;;;52.25;11.43;;;;;;;;;;5057849;28;20538;-80
2021/04/05 09:22:06;;;;;;;35.55;9.27;;;;;;;;;;5063701;28;20037;-80
2021/04/05 09:24:50;;;;;;;16.48;7.32;;;;;;;;;;4978817;28;20049;-80
2021/04/05 09:27:32;;;;;;;26.33;8.23;;;;;;;;;;4984887;28;20042;-79
2021/04/05 09:30:28;;;;;;;;;;;;;;;;;;4953648;28;20042;-80
2021/04/05 09:33:02;;;;;;;12.10;6.88;;;;;;;;;;4968195;28;19914;-80
2021/04/05 09:36:09;;;;;;;18.55;6.60;;;;;;;;;;4968308;29;20090;-81
2021/04/05 09:39:02;;;;;;;10.57;6.10;;;;;;;;;;4956550;29;20467;-80
2021/04/05 09:41:55;;;;;;;9.63;5.95;;;;;;;;;;4984164;28;20047;-80
2021/04/05 09:44:29;;;;;;;9.75;5.68;;;;;;;;;;4970213;28;20034;-80
2021/04/05 09:47:26;;;;;;;13.13;6.32;;;;;;;;;;4965888;28;20507;-80
2021/04/05 09:50:17;;;;;;;10.30;6.00;;;;;;;;;;4968265;29;20035;-79
2021/04/05 09:53:01;;;;;;;;;;;;;;;;;;4966393;28;20078;-79
2021/04/05 09:55:33;;;;;;;9.25;5.47;;;;;;;;;;4985880;28;19921;-79
2021/04/05 09:58:26;;;;;;;13.95;6.38;;;;;;;;;;4966748;28;20553;-80
2021/04/05 10:01:00;;;;;;;12.13;5.68;;;;;;;;;;5038525;28;20037;-80
2021/04/05 10:03:26;;;;;;;12.60;6.05;;;;;;;;;;5031147;28;20032;-79
2021/04/05 10:05:52;;;;;;;10.40;5.88;;;;;;;;;;5063096;28;20029;-79
2021/04/05 10:08:25;;;;;;;9.07;5.10;;;;;;;;;;5045601;28;20026;-80
2021/04/05 10:10:51;;;;;;;9.30;5.38;;;;;;;;;;5037233;28;20033;-80
2021/04/05 10:13:19;;;;;;;12.65;5.80;;;;;;;;;;5052160;28;20025;-79
2021/04/05 10:15:45;;;;;;;8.30;5.22;;;;;;;;;;5059115;28;20082;-79
2021/04/05 10:18:12;;;;;;;12.52;6.65;;;;;;;;;;5045552;28;20025;-79
2021/04/05 10:20:38;;;;;;;11.77;7.55;;;;;;;;;;5038431;28;20037;-79
2021/04/05 10:23:08;;;;;;;15.63;9.68;;;;;;;;;;5036698;28;20040;-79
2021/04/05 10:25:34;;;;;;;10.98;5.97;;;;;;;;;;5043128;28;20060;-79
2021/04/05 10:28:00;;;;;;;9.43;5.03;;;;;;;;;;5048380;28;20315;-79
2021/04/05 10:30:33;;;;;;;7.88;5.20;;;;;;;;;;5030319;28;20041;-79
2021/04/05 10:33:04;;;;;;;10.07;5.32;;;;;;;;;;5036173;28;20076;-79
2021/04/05 10:35:29;;;;;;;9.68;5.18;;;;;;;;;;5047999;28;20029;-79
2021/04/05 10:37:55;;;;;;;10.70;5.28;;;;;;;;;;5042068;28;20053;-81
2021/04/05 10:40:20;;;;;;;14.55;7.40;;;;;;;;;;5015908;28;20021;-79
2021/04/05 10:42:53;;;;;;;18.45;5.75;;;;;;;;;;5050180;28;20063;-78
2021/04/05 10:45:27;;;;;;;9.90;5.25;;;;;;;;;;5048009;28;20404;-79
2021/04/05 10:48:10;;;;;;;9.43;4.90;;;;;;;;;;5053370;28;20087;-79
2021/04/05 10:50:56;;;;;;;10.25;4.88;;;;;;;;;;5041481;28;20120;-81
2021/04/05 10:53:22;;;;;;;16.52;9.82;;;;;;;;;;5039510;28;20036;-81
2021/04/05 10:55:51;;;;;;;10.68;5.47;;;;;;;;;;5043314;28;20021;-79
2021/04/05 10:58:20;;;;;;;18.65;5.57;;;;;;;;;;5039996;28;20472;-79
2021/04/05 11:00:52;;;;;;;11.98;4.75;;;;;;;;;;5038356;28;20065;-79
2021/04/05 11:03:20;;;;;;;7.05;4.28;;;;;;;;;;5042222;28;20026;-81
2021/04/05 11:05:53;;;;;;;9.10;4.60;;;;;;;;;;5033089;28;20033;-81
2021/04/05 11:08:29;;;;;;;9.10;4.75;;;;;;;;;;5037833;28;20439;-80
2021/04/05 11:11:09;;;;;;;9.18;4.50;;;;;;;;;;5046419;28;20029;-81
2021/04/05 11:13:39;;;;;;;11.27;4.65;;;;;;;;;;5044549;28;21029;-81
2021/04/05 11:16:15;;;;;;;8.03;4.30;;;;;;;;;;5041303;28;20039;-80
2021/04/05 11:18:51;;;;;;;10.48;4.60;;;;;;;;;;5022549;28;20354;-80
2021/04/05 11:21:18;;;;;;;8.25;4.20;;;;;;;;;;5035175;28;20033;-80
2021/04/05 11:23:43;;;;;;;10.38;4.30;;;;;;;;;;5025390;28;20033;-82
2021/04/05 11:26:09;;;;;;;11.15;4.53;;;;;;;;;;5035620;28;20036;-80
2021/04/05 11:28:35;;;;;;;9.27;4.45;;;;;;;;;;5026702;28;20103;-78
2021/04/05 11:31:12;;;;;;;8.07;4.60;;;;;;;;;;5034409;28;20438;-81
2021/04/05 11:33:43;;;;;;;9.63;4.63;;;;;;;;;;5026550;28;20025;-78
2021/04/05 11:36:08;;;;;;;7.10;4.25;;;;;;;;;;5026562;28;20021;-79
2021/04/05 11:38:42;;;;;;;9.57;4.93;;;;;;;;;;5034942;28;20485;-79
2021/04/05 11:41:07;;;;;;;8.55;4.43;;;;;;;;;;5046024;28;20025;-80
2021/04/05 11:43:35;;;;;;;9.30;4.60;;;;;;;;;;5044249;28;20092;-80
2021/04/05 11:46:03;;;;;;;10.27;4.57;;;;;;;;;;5017560;28;20121;-80
2021/04/05 11:48:29;;;;;;;12.30;4.88;;;;;;;;;;5028273;28;20033;-79
2021/04/05 11:50:54;;;;;;;8.55;4.78;;;;;;;;;;5025807;28;20041;-79
2021/04/05 11:53:51;;;;;;;8.95;4.80;;;;;;;;;;5017768;28;20370;-80
2021/04/05 11:56:17;;;;;;;9.35;5.07;;;;;;;;;;5045816;28;20485;-80
2021/04/05 11:58:57;;;;;;;8.68;4.68;;;;;;;;;;5048100;28;20044;-79
2021/04/05 12:01:22;;;;;;;10.50;5.70;;;;;;;;;;5033105;28;20025;-80
2021/04/05 12:03:58;;;;;;;7.80;4.88;;;;;;;;;;5029411;28;20468;-80
2021/04/05 12:06:30;;;;;;;8.05;4.65;;;;;;;;;;5048127;28;20108;-79
2021/04/05 12:09:05;;;;;;;11.60;4.82;;;;;;;;;;5052658;28;20275;-80
2021/04/05 12:11:55;;;;;;;10.80;5.00;;;;;;;;;;5032988;28;20029;-80
2021/04/05 12:14:30;;;;;;;8.35;4.50;;;;;;;;;;5039552;28;20025;-80
2021/04/05 12:16:57;;;;;;;10.13;4.63;;;;;;;;;;5039044;28;20462;-79
2021/04/05 12:19:43;;;;;;;10.27;5.43;;;;;;;;;;5024203;28;20020;-82
2021/04/05 12:22:09;;;;;;;9.02;5.43;;;;;;;;;;5030659;28;20476;-81
2021/04/05 12:24:35;;;;;;;7.35;4.38;;;;;;;;;;5038559;28;20025;-81
2021/04/05 12:27:06;;;;;;;8.10;4.80;;;;;;;;;;5028899;28;20397;-80
2021/04/05 12:29:32;;;;;;;;;;;;;;;;;;5038396;28;20021;-80
2021/04/05 12:31:58;;;;;;;12.30;8.30;;;;;;;;;;5041699;28;20167;-82
2021/04/05 12:34:31;;;;;;;7.20;4.93;;;;;;;;;;5032388;28;20485;-80
2021/04/05 12:36:58;;;;;;;11.15;5.05;;;;;;;;;;5040817;28;20085;-81
2021/04/05 12:39:30;;;;;;;8.55;4.75;;;;;;;;;;5033931;28;20032;-81
2021/04/05 12:41:56;;;;;;;6.93;4.53;;;;;;;;;;5042776;28;20038;-81
2021/04/05 12:44:24;;;;;;;7.90;4.45;;;;;;;;;;5048717;28;20029;-82
2021/04/05 12:46:51;;;;;;;10.00;4.68;;;;;;;;;;5035669;28;20026;-81
2021/04/05 12:49:28;;;;;;;9.55;5.38;;;;;;;;;;5019159;28;20025;-82
2021/04/05 12:52:02;;;;;;;10.52;4.72;;;;;;;;;;5044705;28;20100;-80
2021/04/05 12:54:29;;;;;;;10.35;4.30;;;;;;;;;;5026939;28;20511;-82
2021/04/05 12:56:57;;;;;;;9.10;4.53;;;;;;;;;;5033974;28;20499;-79
2021/04/05 12:59:26;;;;;;;9.38;4.88;;;;;;;;;;5030495;28;20108;-80
2021/04/05 13:01:53;;;;;;;7.80;4.43;;;;;;;;;;4999547;28;20032;-82
2021/04/05 13:04:23;;;;;;;8.30;4.50;;;;;;;;;;5032568;28;20075;-78
2021/04/05 13:06:53;;;;;;;7.70;4.35;;;;;;;;;;5048602;28;20036;-81
2021/04/05 13:09:18;;;;;;;7.63;4.13;;;;;;;;;;5022872;28;20022;-82
2021/04/05 13:11:53;;;;;;;8.05;4.50;;;;;;;;;;5049652;28;20027;-82
2021/04/05 13:14:21;;;;;;;7.95;4.38;;;;;;;;;;5047788;28;20033;-82
2021/04/05 13:16:55;;;;;;;9.48;4.35;;;;;;;;;;5043684;28;20036;-81
2021/04/05 13:19:25;;;;;;;8.93;4.68;;;;;;;;;;5036605;28;20025;-81
2021/04/05 13:21:50;;;;;;;8.18;4.40;;;;;;;;;;5042007;28;20048;-82
2021/04/05 13:24:20;;;;;;;8.88;3.78;;;;;;;;;;5014575;28;20025;-81
2021/04/05 13:26:54;;;;;;;8.45;3.83;;;;;;;;;;5028358;28;20033;-81
2021/04/05 13:29:31;;;;;;;7.68;4.65;;;;;;;;;;5006684;28;20029;-82
2021/04/05 13:31:57;;;;;;;8.32;4.20;;;;;;;;;;5021301;28;20112;-83
2021/04/05 13:34:33;;;;;;;6.88;3.80;;;;;;;;;;5024117;28;20027;-82
2021/04/05 13:37:07;;;;;;;9.13;4.00;;;;;;;;;;5024874;28;20021;-81
2021/04/05 13:39:32;;;;;;;8.00;4.60;;;;;;;;;;5029720;28;20018;-81
2021/04/05 13:42:08;;;;;;;7.55;3.85;;;;;;;;;;5028242;28;20087;-82
2021/04/05 13:44:33;;;;;;;7.78;3.45;;;;;;;;;;5019926;28;20025;-80
2021/04/05 13:47:00;;;;;;;6.13;3.60;;;;;;;;;;5027359;28;20575;-82
2021/04/05 13:49:38;;;;;;;8.55;4.13;;;;;;;;;;5010456;28;20378;-79
2021/04/05 13:52:04;;;;;;;10.40;3.65;;;;;;;;;;5045084;28;20021;-82
2021/04/05 13:54:31;;;;;;;12.90;4.60;;;;;;;;;;5014779;28;20075;-82
2021/04/05 13:57:00;;;;;;;7.28;4.00;;;;;;;;;;5028663;28;20538;-80
2021/04/05 13:59:28;;;;;;;9.70;4.50;;;;;;;;;;5045027;28;20075;-81
2021/04/05 14:01:54;;;;;;;10.02;4.50;;;;;;;;;;5047058;28;20028;-81
2021/04/05 14:04:20;;;;;;;10.68;4.38;;;;;;;;;;5031704;28;20036;-82
2021/04/05 14:06:51;;;;;;;12.07;4.65;;;;;;;;;;5031356;28;20116;-82
2021/04/05 14:09:30;;;;;;;6.47;3.20;;;;;;;;;;5043080;28;20005;-81
2021/04/05 14:11:55;;;;;;;10.18;4.07;;;;;;;;;;5033557;28;20037;-80
2021/04/05 14:14:29;;;;;;;14.23;4.32;;;;;;;;;;5044788;28;20028;-81
2021/04/05 14:16:58;;;;;;;8.00;4.45;;;;;;;;;;5041154;28;20485;-80
2021/04/05 14:19:29;;;;;;;11.93;4.50;;;;;;;;;;5024688;28;20040;-81
2021/04/05 14:22:17;;;;;;;;;;;;;;;;;;5048610;28;20056;-82
2021/04/05 14:24:44;;;;;;;7.88;4.72;;;;;;;;;;4993175;28;19956;-83
2021/04/05 14:27:10;;;;;;;7.72;4.57;;;;;;;;;;4962872;28;20096;-81
2021/04/05 14:29:41;;;;;;;9.48;4.82;;;;;;;;;;4977470;28;20093;-81
2021/04/05 14:32:07;;;;;;;7.32;4.80;;;;;;;;;;4994602;28;20517;-82
2021/04/05 14:34:40;;;;;;;11.05;4.70;;;;;;;;;;4973886;28;20041;-81
2021/04/05 14:37:09;;;;;;;9.85;5.22;;;;;;;;;;4990422;28;20042;-81
2021/04/05 14:39:40;;;;;;;8.68;4.72;;;;;;;;;;4991880;28;20030;-81
2021/04/05 14:42:21;;;;;;;9.90;5.10;;;;;;;;;;4974401;28;20122;-82
2021/04/05 14:44:56;;;;;;;10.48;5.20;;;;;;;;;;4984180;28;20532;-81
2021/04/05 14:47:21;;;;;;;8.98;5.30;;;;;;;;;;4994426;28;20030;-81
2021/04/05 14:50:14;;;;;;;9.68;5.28;;;;;;;;;;4977232;28;20041;-82
2021/04/05 14:52:48;;;;;;;9.98;4.38;;;;;;;;;;4989061;28;20149;-82
2021/04/05 14:55:24;;;;;;;8.02;4.40;;;;;;;;;;4969890;28;20049;-82
2021/04/05 14:57:50;;;;;;;9.60;4.68;;;;;;;;;;4994258;28;20037;-81
2021/04/05 15:00:27;;;;;;;9.38;4.38;;;;;;;;;;4993871;28;20044;-81
2021/04/05 15:02:53;;;;;;;8.75;4.82;;;;;;;;;;5045521;28;20045;-81
2021/04/05 15:05:20;;;;;;;9.85;4.70;;;;;;;;;;5043652;28;20119;-81
2021/04/05 15:07:49;;;;;;;7.88;4.65;;;;;;;;;;5038831;28;20069;-81
2021/04/05 15:10:18;;;;;;;8.02;4.95;;;;;;;;;;5026702;28;20025;-81
2021/04/05 15:12:44;;;;;;;10.25;4.80;;;;;;;;;;5029764;28;20143;-82